AFR868 SOCA-SBBE
Flight info
| Callsign | AFR868 |
|---|---|
| Flight time | 1h 15m |
| Altitude | 37000 |
| Route | EPKIP1A EPKIP DCT OIA UA555 VURTU/N0451F380 DCT KOGVU DCT |
| Aircraft | B738/M-SDE2E3FGHIRWXY/LB1 |
Departure
| Time | 2026-04-26 00:16 |
|---|---|
| Airport | Cayenne – Félix Eboué Airport (SOCA) |
Arrival
| Time | 2026-04-26 01:31 |
|---|---|
| Airport | Val de Cans/Júlio Cezar Ribeiro International Airport (SBBE) |
| Time | Latitude | Longitude | Altitude | Speed | Heading |
|---|---|---|---|---|---|
| 2026-04-26 00:09 | 4.82064 | -52.36355 | 28 ft | 0 kts | 245° |
| 2026-04-26 00:10 | 4.82062 | -52.36358 | 28 ft | 3 kts | 244° |
| 2026-04-26 00:10 | 4.82049 | -52.36385 | 28 ft | 5 kts | 242° |
| 2026-04-26 00:11 | 4.82035 | -52.36415 | 28 ft | 5 kts | 244° |
| 2026-04-26 00:11 | 4.82021 | -52.36446 | 28 ft | 5 kts | 243° |
| 2026-04-26 00:11 | 4.82009 | -52.36474 | 28 ft | 5 kts | 244° |
| 2026-04-26 00:11 | 4.81990 | -52.36506 | 28 ft | 6 kts | 241° |
| 2026-04-26 00:12 | 4.81961 | -52.36557 | 28 ft | 11 kts | 241° |
| 2026-04-26 00:12 | 4.81920 | -52.36637 | 28 ft | 15 kts | 245° |
| 2026-04-26 00:12 | 4.81870 | -52.36745 | 27 ft | 19 kts | 245° |
| 2026-04-26 00:12 | 4.81809 | -52.36877 | 27 ft | 21 kts | 245° |
| 2026-04-26 00:13 | 4.81749 | -52.37011 | 29 ft | 21 kts | 246° |
| 2026-04-26 00:13 | 4.81689 | -52.37138 | 26 ft | 20 kts | 245° |
| 2026-04-26 00:13 | 4.81635 | -52.37266 | 30 ft | 20 kts | 244° |
| 2026-04-26 00:13 | 4.81580 | -52.37379 | 27 ft | 10 kts | 245° |
| 2026-04-26 00:14 | 4.81545 | -52.37404 | 26 ft | 10 kts | 192° |
| 2026-04-26 00:14 | 4.81517 | -52.37408 | 27 ft | 0 kts | 184° |
| 2026-04-26 00:14 | 4.81465 | -52.37412 | 26 ft | 16 kts | 178° |
| 2026-04-26 00:14 | 4.81428 | -52.37370 | 26 ft | 3 kts | 71° |
| 2026-04-26 00:15 | 4.81435 | -52.37351 | 26 ft | 5 kts | 65° |
| 2026-04-26 00:15 | 4.81537 | -52.37134 | 27 ft | 75 kts | 65° |
| 2026-04-26 00:15 | 4.81863 | -52.36410 | 29 ft | 147 kts | 63° |
| 2026-04-26 00:15 | 4.82338 | -52.35437 | 272 ft | 150 kts | 64° |
| 2026-04-26 00:16 | 4.82825 | -52.34450 | 443 ft | 166 kts | 63° |
| 2026-04-26 00:16 | 4.83327 | -52.33441 | 669 ft | 162 kts | 68° |
| 2026-04-26 00:16 | 4.83781 | -52.32426 | 931 ft | 159 kts | 66° |
| 2026-04-26 00:16 | 4.84192 | -52.31430 | 1575 ft | 150 kts | 67° |
| 2026-04-26 00:17 | 4.84600 | -52.30490 | 2389 ft | 151 kts | 70° |
| 2026-04-26 00:17 | 4.85001 | -52.29415 | 2929 ft | 170 kts | 72° |
| 2026-04-26 00:17 | 4.85428 | -52.28395 | 4170 ft | 143 kts | 67° |
| 2026-04-26 00:17 | 4.85841 | -52.27432 | 4776 ft | 166 kts | 71° |
| 2026-04-26 00:18 | 4.86252 | -52.26276 | 5391 ft | 178 kts | 73° |
| 2026-04-26 00:18 | 4.86601 | -52.25166 | 6575 ft | 153 kts | 75° |
| 2026-04-26 00:18 | 4.86870 | -52.24177 | 7395 ft | 155 kts | 76° |
| 2026-04-26 00:18 | 4.87150 | -52.22874 | 6903 ft | 226 kts | 89° |
| 2026-04-26 00:19 | 4.86581 | -52.21395 | 7389 ft | 238 kts | 133° |
| 2026-04-26 00:19 | 4.85144 | -52.20633 | 8415 ft | 239 kts | 167° |
| 2026-04-26 00:19 | 4.83446 | -52.20489 | 9058 ft | 256 kts | 172° |
| 2026-04-26 00:19 | 4.81562 | -52.20317 | 9313 ft | 283 kts | 169° |
| 2026-04-26 00:20 | 4.79573 | -52.19999 | 9994 ft | 292 kts | 165° |
| 2026-04-26 00:20 | 4.77568 | -52.19543 | 10411 ft | 311 kts | 162° |
| 2026-04-26 00:20 | 4.75406 | -52.18917 | 10595 ft | 335 kts | 160° |
| 2026-04-26 00:20 | 4.73146 | -52.18150 | 11056 ft | 347 kts | 158° |
| 2026-04-26 00:21 | 4.70866 | -52.17293 | 11734 ft | 352 kts | 156° |
| 2026-04-26 00:21 | 4.68585 | -52.16377 | 12477 ft | 354 kts | 155° |
| 2026-04-26 00:21 | 4.67074 | -52.15748 | 12949 ft | 357 kts | 155° |
| 2026-04-26 00:21 | 4.64772 | -52.14766 | 13638 ft | 361 kts | 155° |
| 2026-04-26 00:22 | 4.62449 | -52.13757 | 14259 ft | 365 kts | 154° |
| 2026-04-26 00:22 | 4.60108 | -52.12731 | 14900 ft | 368 kts | 154° |
| 2026-04-26 00:22 | 4.57757 | -52.11694 | 15517 ft | 371 kts | 154° |
| 2026-04-26 00:22 | 4.55374 | -52.10641 | 16121 ft | 374 kts | 154° |
| 2026-04-26 00:23 | 4.53011 | -52.09597 | 16703 ft | 378 kts | 154° |
| 2026-04-26 00:23 | 4.50596 | -52.08528 | 17299 ft | 381 kts | 154° |
| 2026-04-26 00:23 | 4.48149 | -52.07446 | 17885 ft | 385 kts | 154° |
| 2026-04-26 00:23 | 4.45680 | -52.06354 | 18408 ft | 389 kts | 154° |
| 2026-04-26 00:24 | 4.43194 | -52.05255 | 18893 ft | 392 kts | 154° |
| 2026-04-26 00:24 | 4.40682 | -52.04145 | 19367 ft | 395 kts | 154° |
| 2026-04-26 00:24 | 4.38154 | -52.03027 | 19830 ft | 399 kts | 154° |
| 2026-04-26 00:24 | 4.35599 | -52.01898 | 20297 ft | 402 kts | 154° |
| 2026-04-26 00:25 | 4.33030 | -52.00763 | 20756 ft | 405 kts | 154° |
| 2026-04-26 00:25 | 4.30441 | -51.99618 | 21216 ft | 408 kts | 154° |
| 2026-04-26 00:25 | 4.27858 | -51.98477 | 21660 ft | 412 kts | 154° |
| 2026-04-26 00:25 | 4.25223 | -51.97313 | 22100 ft | 415 kts | 154° |
| 2026-04-26 00:26 | 4.22571 | -51.96141 | 22522 ft | 418 kts | 154° |
| 2026-04-26 00:26 | 4.19896 | -51.94960 | 22940 ft | 421 kts | 154° |
| 2026-04-26 00:26 | 4.17204 | -51.93771 | 23358 ft | 424 kts | 154° |
| 2026-04-26 00:26 | 4.14492 | -51.92573 | 23729 ft | 427 kts | 153° |
| 2026-04-26 00:27 | 4.11756 | -51.91365 | 24116 ft | 428 kts | 153° |
| 2026-04-26 00:27 | 4.09053 | -51.90172 | 24479 ft | 430 kts | 153° |
| 2026-04-26 00:27 | 4.06310 | -51.88961 | 24863 ft | 431 kts | 153° |
| 2026-04-26 00:27 | 4.03561 | -51.87747 | 25230 ft | 432 kts | 153° |
| 2026-04-26 00:28 | 4.00794 | -51.86526 | 25587 ft | 434 kts | 153° |
| 2026-04-26 00:28 | 3.98021 | -51.85302 | 25939 ft | 436 kts | 153° |
| 2026-04-26 00:28 | 3.95231 | -51.84070 | 26289 ft | 438 kts | 153° |
| 2026-04-26 00:28 | 3.92428 | -51.82834 | 26636 ft | 439 kts | 153° |
| 2026-04-26 00:29 | 3.89626 | -51.81598 | 26970 ft | 441 kts | 153° |
| 2026-04-26 00:29 | 3.86845 | -51.80370 | 27293 ft | 443 kts | 153° |
| 2026-04-26 00:29 | 3.84038 | -51.79066 | 27608 ft | 443 kts | 148° |
| 2026-04-26 00:29 | 3.81400 | -51.77460 | 27919 ft | 443 kts | 144° |
| 2026-04-26 00:30 | 3.78819 | -51.75770 | 28227 ft | 444 kts | 143° |
| 2026-04-26 00:30 | 3.76235 | -51.74049 | 28522 ft | 446 kts | 143° |
| 2026-04-26 00:30 | 3.73638 | -51.72319 | 28825 ft | 448 kts | 143° |
| 2026-04-26 00:30 | 3.71065 | -51.70617 | 29128 ft | 449 kts | 143° |
| 2026-04-26 00:31 | 3.68444 | -51.68895 | 29411 ft | 451 kts | 143° |
| 2026-04-26 00:31 | 3.65807 | -51.67174 | 29696 ft | 452 kts | 144° |
| 2026-04-26 00:31 | 3.63162 | -51.65453 | 29968 ft | 454 kts | 144° |
| 2026-04-26 00:31 | 3.60498 | -51.63724 | 30211 ft | 455 kts | 144° |
| 2026-04-26 00:32 | 3.57838 | -51.62000 | 30541 ft | 454 kts | 144° |
| 2026-04-26 00:32 | 3.55233 | -51.60313 | 30931 ft | 451 kts | 144° |
| 2026-04-26 00:32 | 3.49979 | -51.56908 | 31671 ft | 447 kts | 144° |
| 2026-04-26 00:33 | 3.47364 | -51.55212 | 31997 ft | 446 kts | 144° |
| 2026-04-26 00:33 | 3.44753 | -51.53518 | 32353 ft | 445 kts | 144° |
| 2026-04-26 00:33 | 3.42194 | -51.51858 | 32736 ft | 443 kts | 144° |
| 2026-04-26 00:33 | 3.39605 | -51.50180 | 33119 ft | 441 kts | 144° |
| 2026-04-26 00:34 | 3.37031 | -51.48510 | 33491 ft | 440 kts | 144° |
| 2026-04-26 00:34 | 3.34470 | -51.46850 | 33861 ft | 438 kts | 144° |
| 2026-04-26 00:34 | 3.31910 | -51.45190 | 34195 ft | 437 kts | 144° |
| 2026-04-26 00:34 | 3.29364 | -51.43539 | 34523 ft | 435 kts | 144° |
| 2026-04-26 00:35 | 3.26824 | -51.41892 | 34816 ft | 434 kts | 144° |
| 2026-04-26 00:35 | 3.24318 | -51.40268 | 35094 ft | 434 kts | 144° |
| 2026-04-26 00:35 | 3.21782 | -51.38624 | 35391 ft | 432 kts | 144° |
| 2026-04-26 00:35 | 3.19257 | -51.36988 | 35710 ft | 431 kts | 144° |
| 2026-04-26 00:36 | 3.16740 | -51.35356 | 36012 ft | 429 kts | 144° |
| 2026-04-26 00:36 | 3.14233 | -51.33732 | 36295 ft | 429 kts | 144° |
| 2026-04-26 00:36 | 3.11731 | -51.32110 | 36576 ft | 428 kts | 144° |
| 2026-04-26 00:36 | 3.09267 | -51.30514 | 36854 ft | 427 kts | 144° |
| 2026-04-26 00:37 | 3.04252 | -51.27263 | 36946 ft | 431 kts | 144° |
| 2026-04-26 00:37 | 2.99215 | -51.24001 | 36945 ft | 427 kts | 144° |
| 2026-04-26 00:38 | 2.94279 | -51.20804 | 36952 ft | 424 kts | 144° |
| 2026-04-26 00:38 | 2.89335 | -51.17602 | 36958 ft | 423 kts | 144° |
| 2026-04-26 00:39 | 2.84389 | -51.14399 | 36954 ft | 422 kts | 144° |
| 2026-04-26 00:39 | 2.79482 | -51.11221 | 36959 ft | 423 kts | 144° |
| 2026-04-26 00:40 | 2.74527 | -51.08012 | 36958 ft | 424 kts | 144° |
| 2026-04-26 00:40 | 2.69560 | -51.04796 | 36956 ft | 425 kts | 144° |
| 2026-04-26 00:41 | 2.64612 | -51.01594 | 36958 ft | 426 kts | 144° |
| 2026-04-26 00:41 | 2.59613 | -50.98358 | 36956 ft | 428 kts | 144° |
| 2026-04-26 00:42 | 2.54627 | -50.95131 | 36953 ft | 429 kts | 144° |
| 2026-04-26 00:42 | 2.49612 | -50.91886 | 36954 ft | 430 kts | 144° |
| 2026-04-26 00:43 | 2.44583 | -50.88632 | 36952 ft | 430 kts | 144° |
| 2026-04-26 00:43 | 2.39547 | -50.85374 | 36950 ft | 431 kts | 144° |
| 2026-04-26 00:44 | 2.34542 | -50.82137 | 36952 ft | 431 kts | 144° |
| 2026-04-26 00:44 | 2.29496 | -50.78874 | 36952 ft | 430 kts | 144° |
| 2026-04-26 00:45 | 2.24495 | -50.75640 | 36950 ft | 430 kts | 144° |
| 2026-04-26 00:45 | 2.19473 | -50.72392 | 36948 ft | 429 kts | 144° |
| 2026-04-26 00:46 | 2.14086 | -50.69783 | 36947 ft | 434 kts | 159° |
| 2026-04-26 00:46 | 2.08306 | -50.68002 | 36951 ft | 434 kts | 160° |
| 2026-04-26 00:47 | 2.02515 | -50.66245 | 36947 ft | 434 kts | 159° |
| 2026-04-26 00:47 | 1.96776 | -50.64479 | 36949 ft | 434 kts | 159° |
| 2026-04-26 00:48 | 1.91009 | -50.62687 | 36951 ft | 433 kts | 159° |
| 2026-04-26 00:48 | 1.85247 | -50.60891 | 36952 ft | 434 kts | 159° |
| 2026-04-26 00:49 | 1.79505 | -50.59100 | 36951 ft | 434 kts | 159° |
| 2026-04-26 00:49 | 1.73739 | -50.57302 | 36950 ft | 434 kts | 159° |
| 2026-04-26 00:50 | 1.67966 | -50.55503 | 36950 ft | 434 kts | 159° |
| 2026-04-26 00:50 | 1.62222 | -50.53713 | 36953 ft | 434 kts | 159° |
| 2026-04-26 00:51 | 1.56437 | -50.51911 | 36947 ft | 435 kts | 159° |
| 2026-04-26 00:51 | 1.50643 | -50.50105 | 36953 ft | 435 kts | 159° |
| 2026-04-26 00:52 | 1.44890 | -50.48313 | 36950 ft | 435 kts | 159° |
| 2026-04-26 00:52 | 1.39097 | -50.46508 | 36954 ft | 436 kts | 159° |
| 2026-04-26 00:53 | 1.33300 | -50.44702 | 36950 ft | 436 kts | 159° |
| 2026-04-26 00:53 | 1.27532 | -50.42905 | 36951 ft | 436 kts | 159° |
| 2026-04-26 00:54 | 1.21728 | -50.41097 | 36950 ft | 436 kts | 159° |
| 2026-04-26 00:54 | 1.15924 | -50.39289 | 36950 ft | 437 kts | 159° |
| 2026-04-26 00:55 | 1.10122 | -50.37482 | 36948 ft | 437 kts | 159° |
| 2026-04-26 00:55 | 1.04311 | -50.35672 | 36951 ft | 437 kts | 159° |
| 2026-04-26 00:56 | 0.98536 | -50.33874 | 36953 ft | 437 kts | 159° |
| 2026-04-26 00:56 | 0.92718 | -50.32062 | 36951 ft | 437 kts | 159° |
| 2026-04-26 00:57 | 0.86941 | -50.30263 | 36947 ft | 437 kts | 159° |
| 2026-04-26 00:57 | 0.81136 | -50.28455 | 36949 ft | 436 kts | 159° |
| 2026-04-26 00:58 | 0.75346 | -50.26652 | 36951 ft | 436 kts | 159° |
| 2026-04-26 00:58 | 0.69547 | -50.24846 | 36950 ft | 436 kts | 159° |
| 2026-04-26 00:59 | 0.63792 | -50.23054 | 36951 ft | 435 kts | 159° |
| 2026-04-26 00:59 | 0.58002 | -50.21251 | 36950 ft | 435 kts | 159° |
| 2026-04-26 01:00 | 0.52219 | -50.19451 | 36952 ft | 434 kts | 159° |
| 2026-04-26 01:00 | 0.46438 | -50.17651 | 36951 ft | 434 kts | 159° |
| 2026-04-26 01:01 | 0.40706 | -50.15866 | 36950 ft | 434 kts | 159° |
| 2026-04-26 01:01 | 0.34935 | -50.14069 | 36952 ft | 433 kts | 159° |
| 2026-04-26 01:02 | 0.29183 | -50.12279 | 36950 ft | 433 kts | 159° |
| 2026-04-26 01:02 | 0.23426 | -50.10486 | 36949 ft | 432 kts | 159° |
| 2026-04-26 01:03 | 0.17710 | -50.08707 | 36954 ft | 432 kts | 159° |
| 2026-04-26 01:03 | 0.11964 | -50.06918 | 36953 ft | 431 kts | 159° |
| 2026-04-26 01:04 | 0.06222 | -50.05130 | 36949 ft | 431 kts | 159° |
| 2026-04-26 01:04 | 0.00525 | -50.03356 | 36922 ft | 431 kts | 159° |
| 2026-04-26 01:05 | -0.02363 | -50.02456 | 36425 ft | 436 kts | 159° |
| 2026-04-26 01:05 | -0.05262 | -50.01553 | 35859 ft | 435 kts | 159° |
| 2026-04-26 01:05 | -0.08149 | -50.00655 | 35299 ft | 434 kts | 159° |
| 2026-04-26 01:05 | -0.11024 | -49.99761 | 34846 ft | 431 kts | 159° |
| 2026-04-26 01:06 | -0.13863 | -49.98878 | 34386 ft | 429 kts | 159° |
| 2026-04-26 01:06 | -0.16713 | -49.97992 | 33913 ft | 427 kts | 159° |
| 2026-04-26 01:06 | -0.19550 | -49.97108 | 33403 ft | 425 kts | 159° |
| 2026-04-26 01:06 | -0.22365 | -49.96232 | 32945 ft | 422 kts | 159° |
| 2026-04-26 01:07 | -0.25131 | -49.95371 | 32490 ft | 419 kts | 159° |
| 2026-04-26 01:07 | -0.27907 | -49.94507 | 32044 ft | 417 kts | 159° |
| 2026-04-26 01:07 | -0.30674 | -49.93646 | 31604 ft | 414 kts | 159° |
| 2026-04-26 01:07 | -0.33422 | -49.92790 | 31148 ft | 413 kts | 159° |
| 2026-04-26 01:08 | -0.36165 | -49.91936 | 30708 ft | 411 kts | 159° |
| 2026-04-26 01:08 | -0.38901 | -49.91084 | 30260 ft | 410 kts | 159° |
| 2026-04-26 01:08 | -0.41619 | -49.90238 | 29784 ft | 409 kts | 159° |
| 2026-04-26 01:08 | -0.43422 | -49.89677 | 29462 ft | 407 kts | 159° |
| 2026-04-26 01:09 | -0.46982 | -49.88569 | 28850 ft | 403 kts | 159° |
| 2026-04-26 01:09 | -0.49655 | -49.87738 | 28392 ft | 400 kts | 159° |
| 2026-04-26 01:09 | -0.51415 | -49.87190 | 28090 ft | 398 kts | 159° |
| 2026-04-26 01:09 | -0.54053 | -49.86370 | 27649 ft | 395 kts | 159° |
| 2026-04-26 01:10 | -0.56670 | -49.85555 | 27208 ft | 392 kts | 159° |
| 2026-04-26 01:10 | -0.59268 | -49.84746 | 26777 ft | 390 kts | 159° |
| 2026-04-26 01:10 | -0.61778 | -49.83769 | 26336 ft | 384 kts | 148° |
| 2026-04-26 01:10 | -0.63932 | -49.82233 | 25907 ft | 378 kts | 135° |
| 2026-04-26 01:11 | -0.65664 | -49.80265 | 25378 ft | 376 kts | 122° |
| 2026-04-26 01:11 | -0.67096 | -49.78076 | 24867 ft | 377 kts | 120° |
| 2026-04-26 01:11 | -0.68474 | -49.75851 | 24430 ft | 376 kts | 120° |
| 2026-04-26 01:11 | -0.69834 | -49.73626 | 24020 ft | 374 kts | 119° |
| 2026-04-26 01:12 | -0.71193 | -49.71408 | 23619 ft | 372 kts | 120° |
| 2026-04-26 01:12 | -0.72534 | -49.69234 | 23161 ft | 371 kts | 120° |
| 2026-04-26 01:12 | -0.73891 | -49.67049 | 22724 ft | 369 kts | 120° |
| 2026-04-26 01:12 | -0.75243 | -49.64884 | 22296 ft | 366 kts | 120° |
| 2026-04-26 01:13 | -0.76591 | -49.62731 | 21883 ft | 364 kts | 120° |
| 2026-04-26 01:13 | -0.77934 | -49.60592 | 21464 ft | 362 kts | 120° |
| 2026-04-26 01:13 | -0.79254 | -49.58490 | 21055 ft | 360 kts | 120° |
| 2026-04-26 01:13 | -0.80580 | -49.56380 | 20656 ft | 357 kts | 120° |
| 2026-04-26 01:14 | -0.81901 | -49.54277 | 20255 ft | 356 kts | 120° |
| 2026-04-26 01:14 | -0.83215 | -49.52188 | 19866 ft | 354 kts | 120° |
| 2026-04-26 01:14 | -0.84508 | -49.50131 | 19382 ft | 347 kts | 120° |
| 2026-04-26 01:14 | -0.85790 | -49.48092 | 18729 ft | 346 kts | 120° |
| 2026-04-26 01:15 | -0.87074 | -49.46049 | 18071 ft | 346 kts | 120° |
| 2026-04-26 01:15 | -0.88327 | -49.44057 | 17603 ft | 338 kts | 120° |
| 2026-04-26 01:15 | -0.89562 | -49.42094 | 17187 ft | 329 kts | 120° |
| 2026-04-26 01:15 | -0.90764 | -49.40181 | 16803 ft | 321 kts | 120° |
| 2026-04-26 01:16 | -0.91948 | -49.38298 | 16452 ft | 319 kts | 120° |
| 2026-04-26 01:16 | -0.93131 | -49.36414 | 16088 ft | 319 kts | 120° |
| 2026-04-26 01:16 | -0.94310 | -49.34537 | 15729 ft | 318 kts | 120° |
| 2026-04-26 01:16 | -0.95489 | -49.32662 | 15352 ft | 318 kts | 120° |
| 2026-04-26 01:17 | -0.96652 | -49.30811 | 14986 ft | 318 kts | 120° |
| 2026-04-26 01:17 | -0.97828 | -49.28938 | 14604 ft | 318 kts | 120° |
| 2026-04-26 01:17 | -0.99009 | -49.27059 | 14233 ft | 318 kts | 121° |
| 2026-04-26 01:17 | -1.00190 | -49.25181 | 13856 ft | 319 kts | 121° |
| 2026-04-26 01:18 | -1.01370 | -49.23303 | 13463 ft | 319 kts | 121° |
| 2026-04-26 01:18 | -1.02539 | -49.21444 | 13081 ft | 318 kts | 121° |
| 2026-04-26 01:18 | -1.03712 | -49.19577 | 12708 ft | 316 kts | 121° |
| 2026-04-26 01:18 | -1.04879 | -49.17720 | 12337 ft | 315 kts | 121° |
| 2026-04-26 01:19 | -1.06044 | -49.15867 | 11972 ft | 313 kts | 121° |
| 2026-04-26 01:19 | -1.07201 | -49.14027 | 11610 ft | 312 kts | 121° |
| 2026-04-26 01:19 | -1.08349 | -49.12200 | 11250 ft | 310 kts | 121° |
| 2026-04-26 01:19 | -1.09483 | -49.10396 | 10899 ft | 309 kts | 121° |
| 2026-04-26 01:20 | -1.10623 | -49.08582 | 10536 ft | 307 kts | 121° |
| 2026-04-26 01:20 | -1.11753 | -49.06784 | 10299 ft | 302 kts | 121° |
| 2026-04-26 01:20 | -1.12857 | -49.05029 | 10132 ft | 294 kts | 121° |
| 2026-04-26 01:20 | -1.13927 | -49.03326 | 10004 ft | 285 kts | 121° |
| 2026-04-26 01:21 | -1.14976 | -49.01656 | 9718 ft | 283 kts | 121° |
| 2026-04-26 01:21 | -1.16019 | -48.99996 | 9396 ft | 278 kts | 121° |
| 2026-04-26 01:21 | -1.17041 | -48.98370 | 9101 ft | 275 kts | 121° |
| 2026-04-26 01:21 | -1.18045 | -48.96772 | 8808 ft | 273 kts | 121° |
| 2026-04-26 01:22 | -1.19053 | -48.95164 | 8508 ft | 272 kts | 121° |
| 2026-04-26 01:22 | -1.20059 | -48.93560 | 8213 ft | 270 kts | 121° |
| 2026-04-26 01:22 | -1.21056 | -48.91971 | 7912 ft | 269 kts | 121° |
| 2026-04-26 01:22 | -1.22049 | -48.90389 | 7632 ft | 268 kts | 121° |
| 2026-04-26 01:23 | -1.23025 | -48.88836 | 7346 ft | 267 kts | 121° |
| 2026-04-26 01:23 | -1.24011 | -48.87265 | 7057 ft | 266 kts | 121° |
| 2026-04-26 01:23 | -1.24998 | -48.85695 | 6767 ft | 265 kts | 121° |
| 2026-04-26 01:23 | -1.25977 | -48.84136 | 6481 ft | 264 kts | 121° |
| 2026-04-26 01:24 | -1.26953 | -48.82584 | 6173 ft | 263 kts | 121° |
| 2026-04-26 01:24 | -1.27925 | -48.81037 | 5873 ft | 262 kts | 121° |
| 2026-04-26 01:24 | -1.28895 | -48.79494 | 5571 ft | 261 kts | 121° |
| 2026-04-26 01:24 | -1.29847 | -48.77979 | 5291 ft | 260 kts | 121° |
| 2026-04-26 01:25 | -1.30807 | -48.76450 | 5005 ft | 259 kts | 121° |
| 2026-04-26 01:25 | -1.31763 | -48.74929 | 4714 ft | 258 kts | 121° |
| 2026-04-26 01:25 | -1.32715 | -48.73414 | 4426 ft | 256 kts | 121° |
| 2026-04-26 01:25 | -1.33662 | -48.71907 | 4129 ft | 255 kts | 121° |
| 2026-04-26 01:26 | -1.34603 | -48.70410 | 3842 ft | 254 kts | 121° |
| 2026-04-26 01:26 | -1.35545 | -48.68911 | 3517 ft | 254 kts | 121° |
| 2026-04-26 01:26 | -1.36477 | -48.67429 | 3215 ft | 248 kts | 121° |
| 2026-04-26 01:26 | -1.37363 | -48.66020 | 3074 ft | 234 kts | 121° |
| 2026-04-26 01:27 | -1.38207 | -48.64678 | 2947 ft | 221 kts | 121° |
| 2026-04-26 01:27 | -1.39000 | -48.63417 | 2839 ft | 208 kts | 121° |
| 2026-04-26 01:27 | -1.39745 | -48.62231 | 2751 ft | 196 kts | 121° |
| 2026-04-26 01:27 | -1.40468 | -48.61080 | 2691 ft | 192 kts | 121° |
| 2026-04-26 01:28 | -1.41147 | -48.60000 | 2632 ft | 180 kts | 121° |
| 2026-04-26 01:28 | -1.41807 | -48.58949 | 2277 ft | 185 kts | 121° |
| 2026-04-26 01:28 | -1.42490 | -48.57860 | 1981 ft | 180 kts | 121° |
| 2026-04-26 01:28 | -1.43137 | -48.56828 | 1808 ft | 169 kts | 121° |
| 2026-04-26 01:29 | -1.43743 | -48.55862 | 1710 ft | 159 kts | 121° |
| 2026-04-26 01:29 | -1.44087 | -48.54828 | 1596 ft | 161 kts | 82° |
| 2026-04-26 01:29 | -1.43705 | -48.53816 | 1460 ft | 155 kts | 66° |
| 2026-04-26 01:29 | -1.43133 | -48.52939 | 1290 ft | 152 kts | 47° |
| 2026-04-26 01:30 | -1.42413 | -48.52177 | 1094 ft | 150 kts | 49° |
| 2026-04-26 01:30 | -1.41680 | -48.51427 | 902 ft | 150 kts | 43° |
| 2026-04-26 01:30 | -1.40935 | -48.50707 | 680 ft | 148 kts | 50° |
| 2026-04-26 01:30 | -1.40219 | -48.49969 | 483 ft | 146 kts | 43° |
| 2026-04-26 01:31 | -1.39506 | -48.49238 | 313 ft | 145 kts | 41° |
| 2026-04-26 01:31 | -1.38804 | -48.48521 | 134 ft | 148 kts | 49° |
| 2026-04-26 01:31 | -1.38129 | -48.47836 | 47 ft | 127 kts | 43° |
| 2026-04-26 01:31 | -1.37858 | -48.47562 | 45 ft | 21 kts | 48° |
| 2026-04-26 01:32 | -1.37760 | -48.47454 | 47 ft | 21 kts | 48° |
| 2026-04-26 01:32 | -1.37664 | -48.47348 | 48 ft | 20 kts | 48° |
| 2026-04-26 01:32 | -1.37571 | -48.47246 | 51 ft | 19 kts | 44° |
| 2026-04-26 01:32 | -1.37471 | -48.47162 | 52 ft | 19 kts | 44° |
| 2026-04-26 01:33 | -1.37376 | -48.47079 | 52 ft | 18 kts | 52° |
| 2026-04-26 01:33 | -1.37297 | -48.46988 | 53 ft | 17 kts | 44° |
| 2026-04-26 01:33 | -1.37207 | -48.46933 | 55 ft | 9 kts | 58° |
| 2026-04-26 01:33 | -1.37208 | -48.46907 | 56 ft | 0 kts | 124° |
| 2026-04-26 01:34 | -1.37223 | -48.46903 | 53 ft | 3 kts | 183° |
| 2026-04-26 01:34 | -1.37241 | -48.46918 | 54 ft | 4 kts | 227° |
| 2026-04-26 01:34 | -1.37271 | -48.46950 | 51 ft | 13 kts | 227° |
| 2026-04-26 01:34 | -1.37383 | -48.47071 | 53 ft | 34 kts | 227° |
| 2026-04-26 01:35 | -1.37589 | -48.47271 | 50 ft | 44 kts | 221° |
| 2026-04-26 01:35 | -1.37801 | -48.47492 | 47 ft | 43 kts | 226° |
| 2026-04-26 01:35 | -1.38010 | -48.47619 | 45 ft | 33 kts | 187° |
| 2026-04-26 01:35 | -1.38197 | -48.47641 | 45 ft | 15 kts | 186° |
| 2026-04-26 01:36 | -1.38299 | -48.47652 | 43 ft | 14 kts | 186° |
| 2026-04-26 01:36 | -1.38400 | -48.47663 | 41 ft | 15 kts | 186° |
| 2026-04-26 01:36 | -1.38510 | -48.47675 | 40 ft | 17 kts | 186° |
| 2026-04-26 01:37 | -1.38666 | -48.47750 | 37 ft | 0 kts | 270° |
| 2026-04-26 01:37 | -1.38666 | -48.47756 | 37 ft | 2 kts | 270° |
| 2026-04-26 01:37 | -1.38665 | -48.47770 | 37 ft | 2 kts | 271° |
| 2026-04-26 01:37 | -1.38665 | -48.47788 | 37 ft | 3 kts | 271° |
| 2026-04-26 01:38 | -1.38665 | -48.47805 | 37 ft | 2 kts | 271° |
| 2026-04-26 01:38 | -1.38664 | -48.47821 | 37 ft | 2 kts | 271° |
| 2026-04-26 01:38 | -1.38664 | -48.47837 | 37 ft | 2 kts | 272° |
| 2026-04-26 01:38 | -1.38663 | -48.47852 | 38 ft | 2 kts | 272° |
| 2026-04-26 01:39 | -1.38663 | -48.47866 | 38 ft | 2 kts | 272° |
| 2026-04-26 01:39 | -1.38669 | -48.47877 | 38 ft | 2 kts | 218° |
| 2026-04-26 01:39 | -1.38683 | -48.47872 | 36 ft | 3 kts | 139° |
| 2026-04-26 01:39 | -1.38716 | -48.47821 | 36 ft | 14 kts | 128° |
| 2026-04-26 01:40 | -1.38789 | -48.47792 | 34 ft | 11 kts | 184° |
| 2026-04-26 01:40 | -1.38864 | -48.47809 | 32 ft | 11 kts | 187° |
| 2026-04-26 01:40 | -1.38945 | -48.47814 | 32 ft | 12 kts | 183° |
| 2026-04-26 01:40 | -1.38999 | -48.47824 | 31 ft | 4 kts | 214° |
| 2026-04-26 01:41 | -1.39001 | -48.47850 | 31 ft | 4 kts | 285° |
| 2026-04-26 01:41 | -1.38995 | -48.47878 | 31 ft | 4 kts | 278° |
| 2026-04-26 01:41 | -1.38992 | -48.47901 | 32 ft | 2 kts | 278° |
| 2026-04-26 01:41 | -1.38992 | -48.47904 | 32 ft | 0 kts | 278° |